Hallie, Kentucky
Current Conditions -  °F | °C
As of 11:15 PM on Friday 24 Oct 2014 (Local Time) from KI35 Reporting Station
Clear Clear  
Wind Chill: 43°   Ceiling: Unl
Heat Index: 43°   Visibility: 10mi
Dew Point: 43°   Wind: 0mph
Humidity: 100%   Direction: NA
Pressure: 30.1"   Gusts: NA
Location:  37°N, 83.06°W
Report Text: KI35 250315Z AUTO 00000KT 10SM CLR 06/06 A3010 RMK AO1
Loading
Personal Weather Stations






























Interactive Weather Map
Tropical Storm Tracking
New forecast layout! Learn more

10-Day Weather Forecast

Advertisements
Track Severe Weather on mobile